createdAt,value
2022-09-10T00:00:27.127Z,45.70
2022-09-10T00:06:40.161Z,45.70
2022-09-10T00:12:50.631Z,45.80
2022-09-10T00:19:03.670Z,45.80
2022-09-10T00:25:15.657Z,45.80
2022-09-10T00:31:25.879Z,45.80
2022-09-10T00:37:34.331Z,45.90
2022-09-10T00:43:57.167Z,45.90
2022-09-10T00:50:19.091Z,45.90
2022-09-10T00:56:30.308Z,46.10
2022-09-10T01:02:42.286Z,46.00
2022-09-10T01:08:51.271Z,46.10
2022-09-10T01:15:11.712Z,46.20
2022-09-10T01:21:25.611Z,46.10
2022-09-10T01:27:44.934Z,46.20
2022-09-10T01:33:57.776Z,45.90
2022-09-10T01:40:08.036Z,45.80
2022-09-10T01:46:26.797Z,46.20
2022-09-10T01:52:45.405Z,47.40
2022-09-10T01:58:59.995Z,47.90
2022-09-10T02:05:12.238Z,48.90
2022-09-10T02:11:21.724Z,49.70
2022-09-10T02:17:34.342Z,49.70
2022-09-10T02:23:48.594Z,50.30
2022-09-10T02:30:00.154Z,50.90
2022-09-10T02:36:08.950Z,50.20
2022-09-10T02:42:19.141Z,48.80
2022-09-10T02:48:35.340Z,47.80
2022-09-10T02:54:42.724Z,47.40
2022-09-10T03:00:59.004Z,46.60
2022-09-10T03:13:25.185Z,46.20
2022-09-10T03:19:34.381Z,46.90
2022-09-10T03:25:49.647Z,47.80
2022-09-10T03:31:59.291Z,48.00
2022-09-10T03:38:09.977Z,47.70
2022-09-10T03:44:20.385Z,47.60
2022-09-10T03:50:29.760Z,47.70
2022-09-10T03:56:38.585Z,45.90
2022-09-10T04:02:52.716Z,45.40
2022-09-10T04:09:03.797Z,44.70
2022-09-10T04:15:22.044Z,45.40
2022-09-10T04:21:32.150Z,45.70
2022-09-10T04:27:42.913Z,46.10
2022-09-10T04:33:53.154Z,46.70
2022-09-10T04:40:02.241Z,47.50
2022-09-10T04:46:12.530Z,47.60
2022-09-10T04:52:23.419Z,47.50
2022-09-10T04:58:38.670Z,47.80
2022-09-10T05:04:45.551Z,47.90
2022-09-10T05:10:57.136Z,47.30
2022-09-10T05:17:08.039Z,45.90
2022-09-10T05:23:15.322Z,45.30
2022-09-10T05:29:23.192Z,44.70
2022-09-10T05:35:31.490Z,43.70
2022-09-10T05:41:41.427Z,43.30
2022-09-10T05:47:51.271Z,42.70
2022-09-10T05:54:02.772Z,42.60
2022-09-10T06:00:15.471Z,42.00
2022-09-10T06:06:27.246Z,42.00
2022-09-10T06:12:40.470Z,41.80
2022-09-10T06:18:51.099Z,41.90
2022-09-10T06:25:00.226Z,41.40
2022-09-10T06:31:08.708Z,41.50
2022-09-10T06:37:16.394Z,41.60
2022-09-10T06:43:26.833Z,42.00
2022-09-10T06:49:38.381Z,42.10
2022-09-10T06:55:46.447Z,41.50
2022-09-10T07:01:57.987Z,41.30
2022-09-10T07:08:11.283Z,42.40
2022-09-10T07:14:23.996Z,42.50
2022-09-10T07:20:40.641Z,41.60
2022-09-10T07:26:53.015Z,41.10
2022-09-10T07:33:06.136Z,41.50
2022-09-10T07:39:20.417Z,41.90
2022-09-10T07:45:29.612Z,41.70
2022-09-10T07:51:38.972Z,41.00
2022-09-10T07:57:47.225Z,40.90
2022-09-10T08:03:56.838Z,41.00
2022-09-10T08:10:05.731Z,41.00
2022-09-10T08:16:14.775Z,41.40
2022-09-10T08:22:24.644Z,41.00
2022-09-10T08:28:37.126Z,41.80
2022-09-10T08:34:46.864Z,41.50
2022-09-10T08:40:59.995Z,43.10
2022-09-10T08:47:13.580Z,43.10
2022-09-10T08:53:27.540Z,42.50
2022-09-10T08:59:40.770Z,42.90
2022-09-10T09:05:52.859Z,43.50
2022-09-10T09:12:06.878Z,43.40
2022-09-10T09:18:21.342Z,44.40
2022-09-10T09:24:35.377Z,44.80
2022-09-10T09:30:48.009Z,45.20
2022-09-10T09:37:02.380Z,45.40
2022-09-10T09:43:17.225Z,45.10
2022-09-10T09:49:27.963Z,46.40
2022-09-10T09:55:42.241Z,46.00
2022-09-10T10:01:53.868Z,46.20
2022-09-10T10:08:01.978Z,46.40
2022-09-10T10:14:27.639Z,46.20
2022-09-10T10:20:42.590Z,46.90
2022-09-10T10:26:51.631Z,46.70
2022-09-10T10:33:04.409Z,46.90
2022-09-10T10:39:16.255Z,46.80
2022-09-10T10:45:37.239Z,46.50
2022-09-10T10:51:47.436Z,47.20
2022-09-10T10:58:08.734Z,47.40
2022-09-10T11:04:30.046Z,47.20
2022-09-10T11:10:45.173Z,47.40
2022-09-10T11:16:58.485Z,47.20
2022-09-10T11:23:10.039Z,48.10
2022-09-10T11:29:30.023Z,48.10
2022-09-10T11:35:43.194Z,47.90
2022-09-10T11:41:57.943Z,47.80
2022-09-10T11:48:10.999Z,48.50
2022-09-10T11:54:21.458Z,48.60
2022-09-10T12:00:31.206Z,48.50
2022-09-10T12:06:43.549Z,48.20
2022-09-10T12:12:54.018Z,47.90
2022-09-10T12:19:05.161Z,47.90
2022-09-10T12:25:33.909Z,48.50
2022-09-10T12:31:57.511Z,48.60
2022-09-10T12:38:40.184Z,48.20
2022-09-10T12:44:56.842Z,48.50
2022-09-10T12:51:10.785Z,48.40
2022-09-10T12:57:43.194Z,50.20
2022-09-10T13:03:58.487Z,49.50
2022-09-10T13:10:11.266Z,49.90
2022-09-10T13:16:23.295Z,49.50
2022-09-10T13:23:02.626Z,51.20
2022-09-10T13:29:15.395Z,50.30
2022-09-10T13:35:55.925Z,49.80
2022-09-10T13:42:14.666Z,50.20
2022-09-10T13:48:27.900Z,50.30
2022-09-10T13:54:43.013Z,50.20
2022-09-10T14:01:00.603Z,49.80
2022-09-10T14:07:13.109Z,50.20
2022-09-10T14:13:24.995Z,50.00
2022-09-10T14:19:39.840Z,50.00
2022-09-10T14:25:49.521Z,49.40
2022-09-10T14:32:04.220Z,49.40
2022-09-10T14:38:27.573Z,49.40
2022-09-10T14:44:40.927Z,49.10
2022-09-10T14:50:51.539Z,48.80
2022-09-10T14:57:01.813Z,48.40
2022-09-10T15:03:18.551Z,48.30
2022-09-10T15:09:29.959Z,48.40
2022-09-10T15:15:42.068Z,48.20
2022-09-10T15:21:54.735Z,47.70
2022-09-10T15:28:10.667Z,47.00
2022-09-10T15:34:25.381Z,47.00
2022-09-10T15:40:39.807Z,47.10
2022-09-10T15:46:54.630Z,47.20
2022-09-10T15:53:08.427Z,46.70
2022-09-10T15:59:20.048Z,46.30
2022-09-10T16:05:30.597Z,46.30
2022-09-10T16:11:45.384Z,46.40
2022-09-10T16:18:02.937Z,46.40
2022-09-10T16:24:16.876Z,45.90
2022-09-10T16:30:31.130Z,45.70
2022-09-10T16:36:44.162Z,46.00
2022-09-10T16:42:59.491Z,46.10
2022-09-10T16:49:11.131Z,46.00
2022-09-10T16:55:25.018Z,45.70
2022-09-10T17:01:35.537Z,45.70
2022-09-10T17:07:48.374Z,45.80
2022-09-10T17:14:03.616Z,45.90
2022-09-10T17:20:22.331Z,46.10
2022-09-10T17:26:35.512Z,46.00
2022-09-10T17:32:46.340Z,46.40
2022-09-10T17:38:55.606Z,46.40
2022-09-10T17:45:05.259Z,46.80
2022-09-10T17:51:18.399Z,46.90
2022-09-10T17:57:28.343Z,47.50
2022-09-10T18:03:41.073Z,48.10
2022-09-10T18:09:52.543Z,48.60
2022-09-10T18:16:01.641Z,45.90
2022-09-10T18:22:13.107Z,44.40
2022-09-10T18:28:26.146Z,43.40
2022-09-10T18:34:38.552Z,44.40
2022-09-10T18:40:51.900Z,45.30
2022-09-10T18:47:02.408Z,45.80
2022-09-10T18:53:14.482Z,46.00
2022-09-10T18:59:28.277Z,45.90
2022-09-10T19:05:42.591Z,43.90
2022-09-10T19:11:54.707Z,43.20
2022-09-10T19:18:08.897Z,42.60
2022-09-10T19:24:25.359Z,43.50
2022-09-10T19:30:31.518Z,43.80
2022-09-10T19:36:43.705Z,44.40
2022-09-10T19:42:55.766Z,44.50
2022-09-10T19:49:08.850Z,44.40
2022-09-10T19:55:24.684Z,44.40
2022-09-10T20:01:36.181Z,44.50
2022-09-10T20:07:50.731Z,44.70
2022-09-10T20:14:03.507Z,44.90
2022-09-10T20:20:14.252Z,45.50
2022-09-10T20:26:28.661Z,45.80
2022-09-10T20:32:36.734Z,43.70
2022-09-10T20:38:53.468Z,43.00
2022-09-10T20:45:06.254Z,42.40
2022-09-10T20:51:20.335Z,43.30
2022-09-10T20:57:32.219Z,43.70
2022-09-10T21:03:44.713Z,43.60
2022-09-10T21:09:55.523Z,43.90
2022-09-10T21:16:16.193Z,43.80
2022-09-10T21:22:29.154Z,44.80
2022-09-10T21:28:43.362Z,45.10
2022-09-10T21:34:53.927Z,44.80
2022-09-10T21:41:06.942Z,44.80
2022-09-10T21:47:16.932Z,44.10
2022-09-10T21:53:26.047Z,43.20
2022-09-10T21:59:39.538Z,42.90
2022-09-10T22:05:51.699Z,42.90
2022-09-10T22:12:07.079Z,42.80
2022-09-10T22:18:20.503Z,42.50
2022-09-10T22:24:33.146Z,43.00
2022-09-10T22:30:46.750Z,43.20
2022-09-10T22:36:54.782Z,43.10
2022-09-10T22:43:02.925Z,42.90
2022-09-10T22:49:15.286Z,43.10
2022-09-10T22:55:29.842Z,43.30
2022-09-10T23:01:43.232Z,43.40
2022-09-10T23:07:58.122Z,43.60
2022-09-10T23:20:27.846Z,45.70
2022-09-10T23:26:42.081Z,46.90
2022-09-10T23:32:56.959Z,47.20
2022-09-10T23:39:10.024Z,46.70
2022-09-10T23:45:24.284Z,46.70
2022-09-10T23:51:35.917Z,46.30
2022-09-10T23:57:47.584Z,45.00
